Alpine Link — V7SZ7 — position and weather

sailwx.info

Track history (hours):
 
Tides and Currents Weather Stations Pressure Air Temp Water Temp Dewpoint Dewpoint Depression Visibility Wind Speed Wind Dir Waves Ship Positions

Alpine Link

Last reported at 2014-Oct-20 03:12 UTC. Time now 2014-Oct-22 00:00 UTC.
Position N 34°09' E 032°47'.

Length 183 m; draft 7.5 m.

Type: Tanker. MMSI: 538003758.

Date/timePositionNaut miles runAvg speedWind from/ knotsBaromVisibWave heightAir tempDewpointWater temp
2014-Oct-20 03:12N 34°09' E 032°47'1 1.3
2014-Oct-20 02:24N 34°09' E 032°48'1 1.2
2014-Oct-20 01:12N 34°10' E 032°50'3 1.1
2014-Oct-19 22:33N 34°10' E 032°54'2 1.1
2014-Oct-19 20:21N 34°10' E 032°57'5 1.7
2014-Oct-19 17:15N 34°10' E 033°03'1 1.6
2014-Oct-19 16:27N 34°09' E 033°05'1010.9
2014-Oct-19 15:33N 34°18' E 033°09'6 5.8
2014-Oct-19 14:32N 34°23' E 033°13'2 1.7
2014-Oct-19 13:20N 34°23' E 033°15'1 1.7
2014-Oct-19 12:32N 34°23' E 033°17'2 1.7
2014-Oct-19 11:29N 34°22' E 033°19'2 1.9
2014-Oct-19 10:20N 34°22' E 033°22'2 2.2
2014-Oct-19 09:29N 34°22' E 033°24'4 4.0
2014-Oct-19 08:33N 34°24' E 033°28'14 0.5
2014-Oct-18 04:21N 34°18' E 033°43'9 1.3
2014-Oct-17 21:13N 34°13' E 033°33'2 2.0
2014-Oct-17 20:18N 34°12' E 033°31'  
2014-Oct-14 02:31N 34°28' E 033°28'1 0.7
2014-Oct-14 01:31N 34°28' E 033°28'1 0.7
2014-Oct-14 00:28N 34°27' E 033°27'2 0.8
2014-Oct-13 22:31N 34°27' E 033°25'1 0.7
2014-Oct-13 21:31N 34°27' E 033°24'1 0.6
2014-Oct-13 20:28N 34°26' E 033°24'1 0.7
2014-Oct-13 19:31N 34°26' E 033°23'1 0.9
2014-Oct-13 18:28N 34°26' E 033°22'1 0.9
2014-Oct-13 17:31N 34°26' E 033°21'1 0.8
2014-Oct-13 16:31N 34°27' E 033°20'1 0.7
2014-Oct-13 15:31N 34°27' E 033°19'1 0.7
2014-Oct-13 14:31N 34°27' E 033°18'1 0.9
2014-Oct-13 13:16N 34°27' E 033°16'1 0.9
2014-Oct-13 12:31N 34°27' E 033°16'1 1.0
2014-Oct-13 11:22N 34°27' E 033°14'5 5.7
2014-Oct-13 10:33N 34°30' E 033°18'1 1.1
2014-Oct-13 09:33N 34°31' E 033°19'0 0.5
2014-Oct-13 08:33N 34°31' E 033°19'3 3.1
2014-Oct-13 07:33N 34°32' E 033°23'3 2.5
2014-Oct-13 06:33N 34°33' E 033°26'0 0.4
2014-Oct-13 05:33N 34°32' E 033°25'0 0.4
2014-Oct-13 04:33N 34°32' E 033°25'1 0.5
2014-Oct-13 03:33N 34°32' E 033°25'1 0.6
2014-Oct-13 02:31N 34°31' E 033°24'1 0.6
2014-Oct-13 01:33N 34°31' E 033°23'1 0.6
2014-Oct-13 00:33N 34°31' E 033°23'1 0.6
2014-Oct-12 23:33N 34°30' E 033°22'1 0.7
2014-Oct-12 22:33N 34°30' E 033°21'1 0.7
2014-Oct-12 21:33N 34°30' E 033°21'1 0.8
2014-Oct-12 20:33N 34°29' E 033°20'1 0.8
2014-Oct-12 19:33N 34°29' E 033°19'1 0.7
2014-Oct-12 18:33N 34°29' E 033°18'1 1.1
2014-Oct-12 17:33N 34°29' E 033°19'3 3.0
2014-Oct-12 16:33N 34°31' E 033°22'3 2.9
2014-Oct-12 15:33N 34°33' E 033°25'1 0.6
2014-Oct-12 14:33N 34°34' E 033°25'1 1.2
2014-Oct-12 13:33N 34°33' E 033°23'1 1.3
2014-Oct-12 12:33N 34°32' E 033°22'1 1.4
2014-Oct-12 11:33N 34°31' E 033°21'1 1.4
2014-Oct-12 10:33N 34°30' E 033°20'1 1.4
2014-Oct-12 09:33N 34°29' E 033°19'1 0.9
2014-Oct-12 08:33N 34°29' E 033°18'1 1.2
2014-Oct-12 07:33N 34°29' E 033°19'5 4.9
2014-Oct-12 06:33N 34°31' E 033°25'2 0.6
2014-Oct-12 03:33N 34°33' E 033°25'5 4.6
2014-Oct-12 02:33N 34°31' E 033°20'4 4.2
2014-Oct-12 01:33N 34°30' E 033°15'1 1.0
2014-Oct-12 00:33N 34°30' E 033°14'1 0.6
2014-Oct-11 23:31N 34°30' E 033°14'1 0.5
2014-Oct-11 22:33N 34°30' E 033°15'2 1.6
2014-Oct-11 21:33N 34°29' E 033°13'1211.8
2014-Oct-11 20:33N 34°27' E 032°59'1312.9
2014-Oct-11 19:33N 34°26' E 032°44'32312.8
2014-Oct-10 18:16N 36°33' E 026°39'1012.7
2014-Oct-10 17:30N 36°40' E 026°31'1212.9
2014-Oct-10 16:33N 36°50' E 026°21'1313.2
2014-Oct-10 15:33N 37°01' E 026°12'1313.3
2014-Oct-10 14:33N 37°13' E 026°04'1313.2
2014-Oct-10 13:33N 37°24' E 025°56'1512.7
2014-Oct-10 12:24N 37°38' E 025°49'  
Track history (hours):
 
Tides and Currents Weather Stations Pressure Air Temp Water Temp Dewpoint Dewpoint Depression Visibility Wind Speed Wind Dir Waves Ship Positions

Alpine Link

Last reported at 2014-Oct-20 03:12 UTC. Time now 2014-Oct-22 00:00 UTC.
Position N 34°09' E 032°47'.

Length 183 m; draft 7.5 m.

Type: Tanker. MMSI: 538003758.

Date/timePositionNaut miles runAvg speedWind from/ knotsBaromVisibWave heightAir tempDewpointWater temp
2014-Oct-20 03:12N 34°09' E 032°47'1 1.3
2014-Oct-20 02:24N 34°09' E 032°48'1 1.2
2014-Oct-20 01:12N 34°10' E 032°50'3 1.1
2014-Oct-19 22:33N 34°10' E 032°54'2 1.1
2014-Oct-19 20:21N 34°10' E 032°57'5 1.7
2014-Oct-19 17:15N 34°10' E 033°03'1 1.6
2014-Oct-19 16:27N 34°09' E 033°05'1010.9
2014-Oct-19 15:33N 34°18' E 033°09'6 5.8
2014-Oct-19 14:32N 34°23' E 033°13'2 1.7
2014-Oct-19 13:20N 34°23' E 033°15'1 1.7
2014-Oct-19 12:32N 34°23' E 033°17'2 1.7
2014-Oct-19 11:29N 34°22' E 033°19'2 1.9
2014-Oct-19 10:20N 34°22' E 033°22'2 2.2
2014-Oct-19 09:29N 34°22' E 033°24'4 4.0
2014-Oct-19 08:33N 34°24' E 033°28'14 0.5
2014-Oct-18 04:21N 34°18' E 033°43'9 1.3
2014-Oct-17 21:13N 34°13' E 033°33'2 2.0
2014-Oct-17 20:18N 34°12' E 033°31'  
2014-Oct-14 02:31N 34°28' E 033°28'1 0.7
2014-Oct-14 01:31N 34°28' E 033°28'1 0.7
2014-Oct-14 00:28N 34°27' E 033°27'2 0.8
2014-Oct-13 22:31N 34°27' E 033°25'1 0.7
2014-Oct-13 21:31N 34°27' E 033°24'1 0.6
2014-Oct-13 20:28N 34°26' E 033°24'1 0.7
2014-Oct-13 19:31N 34°26' E 033°23'1 0.9
2014-Oct-13 18:28N 34°26' E 033°22'1 0.9
2014-Oct-13 17:31N 34°26' E 033°21'1 0.8
2014-Oct-13 16:31N 34°27' E 033°20'1 0.7
2014-Oct-13 15:31N 34°27' E 033°19'1 0.7
2014-Oct-13 14:31N 34°27' E 033°18'1 0.9
2014-Oct-13 13:16N 34°27' E 033°16'1 0.9
2014-Oct-13 12:31N 34°27' E 033°16'1 1.0
2014-Oct-13 11:22N 34°27' E 033°14'5 5.7
2014-Oct-13 10:33N 34°30' E 033°18'1 1.1
2014-Oct-13 09:33N 34°31' E 033°19'0 0.5
2014-Oct-13 08:33N 34°31' E 033°19'3 3.1
2014-Oct-13 07:33N 34°32' E 033°23'3 2.5
2014-Oct-13 06:33N 34°33' E 033°26'0 0.4
2014-Oct-13 05:33N 34°32' E 033°25'0 0.4
2014-Oct-13 04:33N 34°32' E 033°25'1 0.5
2014-Oct-13 03:33N 34°32' E 033°25'1 0.6
2014-Oct-13 02:31N 34°31' E 033°24'1 0.6
2014-Oct-13 01:33N 34°31' E 033°23'1 0.6
2014-Oct-13 00:33N 34°31' E 033°23'1 0.6
2014-Oct-12 23:33N 34°30' E 033°22'1 0.7
2014-Oct-12 22:33N 34°30' E 033°21'1 0.7
2014-Oct-12 21:33N 34°30' E 033°21'1 0.8
2014-Oct-12 20:33N 34°29' E 033°20'1 0.8
2014-Oct-12 19:33N 34°29' E 033°19'1 0.7
2014-Oct-12 18:33N 34°29' E 033°18'1 1.1
2014-Oct-12 17:33N 34°29' E 033°19'3 3.0
2014-Oct-12 16:33N 34°31' E 033°22'3 2.9
2014-Oct-12 15:33N 34°33' E 033°25'1 0.6
2014-Oct-12 14:33N 34°34' E 033°25'1 1.2
2014-Oct-12 13:33N 34°33' E 033°23'1 1.3
2014-Oct-12 12:33N 34°32' E 033°22'1 1.4
2014-Oct-12 11:33N 34°31' E 033°21'1 1.4
2014-Oct-12 10:33N 34°30' E 033°20'1 1.4
2014-Oct-12 09:33N 34°29' E 033°19'1 0.9
2014-Oct-12 08:33N 34°29' E 033°18'1 1.2
2014-Oct-12 07:33N 34°29' E 033°19'5 4.9
2014-Oct-12 06:33N 34°31' E 033°25'2 0.6
2014-Oct-12 03:33N 34°33' E 033°25'5 4.6
2014-Oct-12 02:33N 34°31' E 033°20'4 4.2
2014-Oct-12 01:33N 34°30' E 033°15'1 1.0
2014-Oct-12 00:33N 34°30' E 033°14'1 0.6
2014-Oct-11 23:31N 34°30' E 033°14'1 0.5
2014-Oct-11 22:33N 34°30' E 033°15'2 1.6
2014-Oct-11 21:33N 34°29' E 033°13'1211.8
2014-Oct-11 20:33N 34°27' E 032°59'1312.9
2014-Oct-11 19:33N 34°26' E 032°44'32312.8
2014-Oct-10 18:16N 36°33' E 026°39'1012.7
2014-Oct-10 17:30N 36°40' E 026°31'1212.9
2014-Oct-10 16:33N 36°50' E 026°21'1313.2
2014-Oct-10 15:33N 37°01' E 026°12'1313.3
2014-Oct-10 14:33N 37°13' E 026°04'1313.2
2014-Oct-10 13:33N 37°24' E 025°56'1512.7
2014-Oct-10 12:24N 37°38' E 025°49'  

Dump ship's entire track history